This is the latest recevied weather packets stored in our database for station/object EC1DIR-13. If no packets are shown the sender has not sent any weather packets the latest 10 day(s).
| Time | Temp. | Humidity | Pressure | Rain* | Wind** | Luminosity | Snow |
|---|---|---|---|---|---|---|---|
| 1777774557 | 11.67° C | 64% | 1015 hPa | 0 mm | - | 0 W/m² | - |
| 1777770958 | 11.67° C | 64% | 1015.4 hPa | 0.25 mm | - | 0 W/m² | - |
| 1777767341 | 12.22° C | 63% | 1015.8 hPa | 0 mm | - | 0 W/m² | - |
| 1777766456 | 12.22° C | 63% | 1015.9 hPa | 0 mm | - | 0 W/m² | - |
| 1777764635 | 12.78° C | 63% | 1016 hPa | 0 mm | - | 0 W/m² | - |
| 1777755623 | 13.89° C | 63% | 1016 hPa | 0 mm | - | 0 W/m² | - |
| 1777747517 | 16.11° C | 55% | 1014.9 hPa | 0 mm | - | 25 W/m² | - |
| 1777746617 | 16.67° C | 54% | 1015 hPa | 0 mm | - | 35 W/m² | - |
| 1777741213 | 15.56° C | 57% | 1015 hPa | 0 mm | - | 104 W/m² | - |
| 1777731302 | 15.56° C | 58% | 1016.2 hPa | 1.78 mm | - | 882 W/m² | - |
| 1777730526 | 15° C | 62% | 1016.1 hPa | 1.78 mm | - | 248 W/m² | - |
| 1777728659 | 15° C | 60% | 1016.6 hPa | 2.54 mm | - | 127 W/m² | - |
| 1777722349 | 14.44° C | 61% | 1017.4 hPa | 0 mm | - | 118 W/m² | - |
| 1777720549 | 15° C | 59% | 1017.4 hPa | 0.51 mm | - | 86 W/m² | - |
| 1777718746 | 15° C | 60% | 1017.9 hPa | 0.51 mm | - | 93 W/m² | - |
| 1777712469 | 14.44° C | 60% | 1018 hPa | 0.51 mm | - | 63 W/m² | - |
| 1777709755 | 14.44° C | 61% | 1018.5 hPa | 0.51 mm | - | 21 W/m² | - |
| 1777707034 | 14.44° C | 60% | 1018.5 hPa | 0.25 mm | - | 21 W/m² | - |
| 1777706135 | 14.44° C | 61% | 1018.4 hPa | 0 mm | - | 19 W/m² | - |
| 1777704331 | 14.44° C | 61% | 1018 hPa | 0.51 mm | - | 32 W/m² | - |
| 1777703439 | 14.44° C | 61% | 1018.2 hPa | 0.51 mm | - | 16 W/m² | - |
| 1777701625 | 14.44° C | 59% | 1018.6 hPa | 0.51 mm | - | 0 W/m² | - |
| 1777697117 | 15° C | 55% | 1018.5 hPa | 0 mm | - | 0 W/m² | - |
| 1777696218 | 15.56° C | 53% | 1018.1 hPa | 0 mm | - | 0 W/m² | - |
| 1777690808 | 16.11° C | 52% | 1018.5 hPa | 0 mm | - | 0 W/m² | - |
* Rain latest hour (hover to see other rain measurements)
** Current wind speed in m/s (hover to see current wind gust speed)